Time;durP1;ratioP1;P1;durP2;ratioP2;P2;SDS_P1;SDS_P2;PMS_P1;PMS_P2;Temp;Humidity;BMP_temperature;BMP_pressure;BME280_temperature;BME280_humidity;BME280_pressure;Samples;Min_cycle;Max_cycle;Signal;HPM_P1;HPM_P2
2021/10/30 09:27:05;;;;;;;13.88;7.57;;;13.60;99.90;;;;;;5097752;27;20334;-60
2021/10/30 09:29:31;;;;;;;15.82;8.50;;;13.40;99.90;;;;;;5083549;28;20024;-60
2021/10/30 09:32:10;;;;;;;17.05;8.88;;;13.30;99.90;;;;;;5078769;28;20040;-61
2021/10/30 09:34:36;;;;;;;21.00;10.68;;;13.30;99.90;;;;;;5078459;28;20036;-61
2021/10/30 09:37:01;;;;;;;21.23;10.75;;;13.30;99.90;;;;;;5081500;28;20029;-60
2021/10/30 09:39:27;;;;;;;22.92;9.95;;;13.20;99.90;;;;;;5076684;28;20493;-55
2021/10/30 09:41:52;;;;;;;19.73;10.60;;;13.20;99.90;;;;;;5085414;28;20021;-60
2021/10/30 09:44:23;;;;;;;15.80;9.25;;;13.20;99.90;;;;;;5086097;28;20024;-58
2021/10/30 09:46:52;;;;;;;13.63;9.05;;;13.30;99.90;;;;;;5079025;28;20024;-61
2021/10/30 09:49:20;;;;;;;12.23;7.75;;;13.30;99.90;;;;;;5085630;28;20035;-61
2021/10/30 09:51:52;;;;;;;15.73;8.45;;;13.30;99.90;;;;;;5077925;28;20159;-61
2021/10/30 09:54:31;;;;;;;14.27;7.65;;;13.30;99.90;;;;;;5081768;28;20036;-61
2021/10/30 09:56:56;;;;;;;19.70;7.85;;;13.30;99.90;;;;;;5077375;28;20043;-61
2021/10/30 09:59:25;;;;;;;15.18;7.70;;;13.40;99.90;;;;;;5082177;28;20028;-61
2021/10/30 10:01:50;;;;;;;12.50;8.15;;;13.40;99.90;;;;;;5085906;28;20020;-60
2021/10/30 10:04:19;;;;;;;13.48;8.07;;;13.40;99.90;;;;;;5075066;28;20043;-61
2021/10/30 10:06:46;;;;;;;18.42;8.00;;;13.50;99.90;;;;;;5080191;28;20025;-61
2021/10/30 10:09:13;;;;;;;16.00;8.85;;;13.40;99.90;;;;;;5103590;28;20020;-61
2021/10/30 10:11:43;;;;;;;14.15;7.97;;;13.40;99.90;;;;;;5073516;28;20396;-60
2021/10/30 10:14:17;;;;;;;18.80;8.20;;;13.40;99.90;;;;;;5081234;28;20029;-61
2021/10/30 10:16:45;;;;;;;15.35;7.65;;;13.40;99.90;;;;;;5080960;28;20033;-60
2021/10/30 10:19:11;;;;;;;17.08;8.55;;;13.30;99.90;;;;;;5074868;28;20039;-60
2021/10/30 10:21:38;;;;;;;15.73;7.13;;;13.40;99.90;;;;;;5080003;28;20054;-61
2021/10/30 10:24:15;;;;;;;20.10;8.98;;;13.30;99.90;;;;;;5076106;28;20024;-61
2021/10/30 10:26:55;;;;;;;15.45;8.50;;;13.40;99.90;;;;;;5079030;28;20027;-61
2021/10/30 10:29:29;;;;;;;18.33;9.13;;;13.30;99.90;;;;;;5079252;28;20103;-61
2021/10/30 10:31:56;;;;;;;17.52;8.15;;;13.30;99.90;;;;;;5073886;28;20537;-61
2021/10/30 10:34:24;;;;;;;29.45;14.68;;;13.30;99.90;;;;;;5080080;28;20104;-60
2021/10/30 10:37:13;;;;;;;51.17;19.35;;;13.30;99.90;;;;;;5080179;28;20040;-61
2021/10/30 10:39:40;;;;;;;113.75;33.13;;;13.30;99.90;;;;;;5070339;28;20067;-57
2021/10/30 10:42:12;;;;;;;57.45;19.25;;;13.30;99.90;;;;;;5066642;28;20028;-61
2021/10/30 10:44:41;;;;;;;91.22;22.15;;;13.30;99.90;;;;;;5067343;28;20054;-61
2021/10/30 10:47:31;;;;;;;74.85;21.38;;;13.30;99.90;;;;;;5074575;28;20431;-61
2021/10/30 10:50:45;;;;;;;86.07;19.25;;;13.30;99.90;;;;;;5063984;28;20403;-61
2021/10/30 10:53:15;;;;;;;51.88;15.15;;;13.30;99.90;;;;;;5045154;28;20442;-60
2021/10/30 10:55:47;;;;;;;20.50;9.73;;;13.30;99.90;;;;;;5044437;28;20021;-59
2021/10/30 10:58:14;;;;;;;23.05;10.15;;;13.30;99.90;;;;;;5050860;28;20045;-61
2021/10/30 11:01:03;;;;;;;24.10;11.20;;;13.30;99.90;;;;;;5063814;28;20087;-61
2021/10/30 11:03:29;;;;;;;30.23;12.07;;;13.30;99.90;;;;;;5060342;28;20029;-62
2021/10/30 11:05:57;;;;;;;21.17;9.93;;;13.40;99.90;;;;;;5064940;28;20036;-61
2021/10/30 11:08:26;;;;;;;16.98;8.82;;;13.40;99.90;;;;;;5066668;28;20036;-61
2021/10/30 11:11:17;;;;;;;18.75;7.90;;;13.40;99.90;;;;;;5065789;28;20014;-61
2021/10/30 11:13:50;;;;;;;16.70;9.40;;;13.40;99.90;;;;;;5066256;28;20044;-61
2021/10/30 11:16:22;;;;;;;18.47;9.30;;;13.50;99.90;;;;;;5061860;28;20025;-61
2021/10/30 11:19:11;;;;;;;22.13;8.63;;;13.50;99.90;;;;;;5058555;28;20267;-60
2021/10/30 11:21:43;;;;;;;16.27;8.60;;;13.60;99.90;;;;;;5065485;28;20479;-61
2021/10/30 11:24:23;;;;;;;18.38;8.80;;;13.60;99.90;;;;;;5062132;28;20024;-62
2021/10/30 11:27:09;;;;;;;11.57;7.13;;;13.70;99.90;;;;;;5062394;28;20039;-61
2021/10/30 11:29:47;;;;;;;11.38;6.78;;;13.70;99.90;;;;;;5067081;28;20091;-61
2021/10/30 11:32:13;;;;;;;9.93;6.47;;;13.70;99.90;;;;;;5065301;28;20064;-60
2021/10/30 11:34:38;;;;;;;12.55;6.80;;;13.70;99.90;;;;;;5069817;28;20044;-60
2021/10/30 11:37:05;;;;;;;11.88;6.25;;;13.70;99.90;;;;;;5073633;28;20057;-61
2021/10/30 11:39:31;;;;;;;10.63;6.97;;;13.70;99.90;;;;;;5063615;28;20162;-62
2021/10/30 11:42:01;;;;;;;14.82;6.50;;;13.70;99.90;;;;;;5065635;28;20349;-62
2021/10/30 11:44:27;;;;;;;15.90;6.68;;;13.70;99.90;;;;;;5070713;28;20037;-62
2021/10/30 11:46:55;;;;;;;9.85;5.90;;;13.70;99.90;;;;;;5070992;28;20033;-62
2021/10/30 11:49:35;;;;;;;11.30;6.38;;;13.70;99.90;;;;;;5065647;28;20377;-62
2021/10/30 11:52:03;;;;;;;11.82;6.40;;;13.70;99.90;;;;;;5065918;28;20039;-62
2021/10/30 11:54:28;;;;;;;12.25;6.07;;;13.80;99.90;;;;;;5068918;28;20480;-62
2021/10/30 11:56:54;;;;;;;12.80;6.43;;;13.80;99.90;;;;;;5064321;28;20036;-62
2021/10/30 11:59:19;;;;;;;9.45;5.95;;;13.90;99.90;;;;;;5063267;28;20032;-62
2021/10/30 12:01:47;;;;;;;15.55;6.85;;;13.90;99.90;;;;;;5060657;28;20037;-62
2021/10/30 12:04:17;;;;;;;11.43;6.32;;;14.00;99.90;;;;;;5065753;28;20028;-63
2021/10/30 12:06:54;;;;;;;10.80;5.90;;;14.00;99.90;;;;;;5070051;28;20063;-62
2021/10/30 12:09:35;;;;;;;8.70;5.30;;;14.00;99.90;;;;;;5068207;28;20032;-63
2021/10/30 12:12:03;;;;;;;11.70;5.70;;;14.10;99.90;;;;;;5071014;28;20414;-62
2021/10/30 12:14:42;;;;;;;11.15;5.35;;;14.10;99.90;;;;;;5071676;28;20072;-62
2021/10/30 12:17:10;;;;;;;15.13;5.20;;;14.10;99.90;;;;;;5071704;28;20028;-62
2021/10/30 12:19:39;;;;;;;8.98;5.25;;;14.20;99.90;;;;;;5070441;28;20467;-62
2021/10/30 12:22:09;;;;;;;15.57;5.38;;;14.20;99.90;;;;;;5059513;28;20043;-62
2021/10/30 12:24:40;;;;;;;11.60;5.55;;;14.20;99.90;;;;;;5068327;28;20107;-62
2021/10/30 12:27:07;;;;;;;7.97;4.97;;;14.20;99.90;;;;;;5068783;28;20037;-62
2021/10/30 12:29:42;;;;;;;11.25;5.35;;;14.20;99.90;;;;;;5072056;28;20027;-62
2021/10/30 12:32:13;;;;;;;10.43;5.40;;;14.10;99.90;;;;;;5068044;28;20394;-61
2021/10/30 12:35:01;;;;;;;14.73;5.55;;;14.20;99.90;;;;;;5070643;28;20433;-61
2021/10/30 12:37:32;;;;;;;9.27;5.60;;;14.20;99.90;;;;;;5067165;28;20086;-54
2021/10/30 12:40:08;;;;;;;16.42;9.82;;;14.20;99.90;;;;;;5065572;28;20059;-54
2021/10/30 12:42:35;;;;;;;22.20;10.35;;;14.20;99.90;;;;;;5069921;28;20437;-55
2021/10/30 12:45:01;;;;;;;20.10;10.50;;;14.20;99.90;;;;;;5063370;28;20515;-57
2021/10/30 12:47:29;;;;;;;9.23;5.72;;;14.20;99.90;;;;;;5066638;28;20024;-54
2021/10/30 12:49:57;;;;;;;10.18;5.88;;;14.30;99.90;;;;;;5068690;28;20442;-56
2021/10/30 12:52:23;;;;;;;11.48;4.88;;;14.30;99.90;;;;;;5061057;28;20035;-55
2021/10/30 12:54:56;;;;;;;11.38;5.53;;;14.30;99.90;;;;;;5067461;28;20027;-57
2021/10/30 12:57:24;;;;;;;11.20;5.97;;;14.40;99.90;;;;;;5062043;28;20195;-56
2021/10/30 13:00:01;;;;;;;8.02;5.18;;;14.40;99.90;;;;;;5069153;28;20031;-57
2021/10/30 13:02:28;;;;;;;9.63;5.75;;;14.40;99.90;;;;;;5066941;28;20305;-55
2021/10/30 13:04:54;;;;;;;13.57;5.25;;;14.40;99.90;;;;;;5067052;28;20032;-57
2021/10/30 13:07:23;;;;;;;10.13;5.75;;;14.30;99.90;;;;;;5067846;28;20016;-57
2021/10/30 13:09:57;;;;;;;11.38;5.80;;;14.40;99.90;;;;;;5068599;28;20020;-57
2021/10/30 13:12:23;;;;;;;12.07;5.78;;;14.40;99.90;;;;;;5066415;28;20016;-54
2021/10/30 13:14:49;;;;;;;10.13;5.68;;;14.40;99.90;;;;;;5063816;28;20551;-54
2021/10/30 13:17:15;;;;;;;8.57;6.18;;;14.40;99.90;;;;;;5066219;28;20026;-52
2021/10/30 13:19:40;;;;;;;23.75;6.18;;;14.40;99.90;;;;;;5064260;28;20037;-54
2021/10/30 13:22:06;;;;;;;9.27;5.88;;;14.30;99.90;;;;;;5061066;28;20017;-53
2021/10/30 13:24:32;;;;;;;10.07;6.10;;;14.30;99.90;;;;;;5063233;28;20107;-53
2021/10/30 13:26:58;;;;;;;12.38;6.03;;;14.30;99.90;;;;;;5066012;28;20207;-54
2021/10/30 13:29:25;;;;;;;17.33;5.65;;;14.40;99.90;;;;;;5090287;23;20141;-55
2021/10/30 13:31:53;;;;;;;10.07;5.10;;;14.40;99.90;;;;;;5067589;28;20013;-60
2021/10/30 13:34:19;;;;;;;29.83;5.57;;;14.40;99.90;;;;;;5060664;28;20021;-63
2021/10/30 13:36:44;;;;;;;10.52;4.35;;;14.50;99.90;;;;;;5068142;28;20033;-63
2021/10/30 13:39:10;;;;;;;15.77;5.20;;;14.60;99.90;;;;;;5081887;28;20024;-63
2021/10/30 13:41:36;;;;;;;9.75;5.55;;;14.60;99.90;;;;;;5085345;28;20051;-61
2021/10/30 13:44:03;;;;;;;11.50;5.03;;;14.60;99.90;;;;;;5086078;28;20032;-61
2021/10/30 13:46:32;;;;;;;8.02;4.70;;;14.70;99.90;;;;;;5084675;28;20043;-61
2021/10/30 13:48:58;;;;;;;12.20;4.95;;;14.60;99.90;;;;;;5085158;28;20525;-62
2021/10/30 13:51:25;;;;;;;16.55;5.72;;;14.60;99.90;;;;;;5088504;28;20021;-60
2021/10/30 13:53:51;;;;;;;8.77;5.57;;;14.60;99.90;;;;;;5087716;28;20017;-60
2021/10/30 13:56:19;;;;;;;10.73;4.38;;;14.60;99.90;;;;;;5086914;28;20101;-57
2021/10/30 13:58:44;;;;;;;11.32;5.20;;;14.60;99.90;;;;;;5086258;28;20062;-58
2021/10/30 14:01:11;;;;;;;8.48;5.18;;;14.60;99.90;;;;;;5085767;28;20028;-60
2021/10/30 14:03:40;;;;;;;10.05;4.90;;;14.50;99.90;;;;;;5084216;28;20040;-61
2021/10/30 14:06:08;;;;;;;12.48;4.93;;;14.50;99.90;;;;;;5085531;28;20032;-61
2021/10/30 14:08:34;;;;;;;7.47;5.07;;;14.50;99.90;;;;;;5086886;28;20040;-58
2021/10/30 14:11:00;;;;;;;6.82;5.20;;;14.40;99.90;;;;;;5084901;28;20029;-60
2021/10/30 14:13:26;;;;;;;8.15;4.57;;;14.40;99.90;;;;;;5091387;28;20027;-58
2021/10/30 14:15:51;;;;;;;22.00;9.48;;;14.40;99.90;;;;;;5092012;28;20630;-58
2021/10/30 14:18:17;;;;;;;17.33;9.48;;;14.40;99.90;;;;;;5090858;28;20082;-58
2021/10/30 14:20:43;;;;;;;6.70;4.38;;;14.50;99.90;;;;;;5092653;28;20386;-66
2021/10/30 14:23:08;;;;;;;8.82;4.55;;;14.50;99.90;;;;;;5091163;28;20040;-57
2021/10/30 14:25:34;;;;;;;9.38;4.53;;;14.40;99.90;;;;;;5088153;28;20024;-59
2021/10/30 14:27:59;;;;;;;6.90;4.70;;;14.50;99.90;;;;;;5091142;28;20095;-58
2021/10/30 14:30:26;;;;;;;6.65;4.45;;;14.50;99.90;;;;;;5084225;28;20017;-60
2021/10/30 14:32:52;;;;;;;7.20;4.80;;;14.50;99.90;;;;;;5085449;28;20039;-64
2021/10/30 14:35:18;;;;;;;7.63;3.58;;;14.40;99.90;;;;;;5084913;28;20035;-60
2021/10/30 14:37:44;;;;;;;6.00;4.20;;;14.40;99.90;;;;;;5086786;28;20089;-62
2021/10/30 14:40:10;;;;;;;9.65;4.05;;;14.40;99.90;;;;;;5086811;28;20039;-61
2021/10/30 14:42:35;;;;;;;7.45;3.60;;;14.40;99.90;;;;;;5087377;28;20511;-62
2021/10/30 14:45:04;;;;;;;6.30;3.60;;;14.40;99.90;;;;;;5086057;28;20124;-56
2021/10/30 14:47:30;;;;;;;5.53;3.47;;;14.40;99.90;;;;;;5082861;28;20103;-58
2021/10/30 14:49:56;;;;;;;6.45;3.30;;;14.40;99.90;;;;;;5083851;28;20406;-58
2021/10/30 14:52:23;;;;;;;7.95;4.47;;;14.40;99.90;;;;;;5088437;28;20484;-60
2021/10/30 14:54:48;;;;;;;20.33;3.65;;;14.40;99.90;;;;;;5088124;28;20024;-60
2021/10/30 14:57:14;;;;;;;4.82;3.10;;;14.40;99.90;;;;;;5085556;28;20042;-60
2021/10/30 14:59:39;;;;;;;7.78;3.95;;;14.40;99.90;;;;;;5088215;28;20063;-63
2021/10/30 15:02:05;;;;;;;5.43;2.80;;;14.40;99.90;;;;;;5083643;28;20122;-60
2021/10/30 15:04:31;;;;;;;5.90;2.55;;;14.40;99.90;;;;;;5088648;28;20082;-55
2021/10/30 15:06:56;;;;;;;9.05;2.92;;;14.40;99.90;;;;;;5091707;28;20032;-59
2021/10/30 15:09:22;;;;;;;6.28;2.90;;;14.40;99.90;;;;;;5086577;28;20422;-61
2021/10/30 15:11:47;;;;;;;4.18;2.67;;;14.40;99.90;;;;;;5085827;28;20027;-57
2021/10/30 15:14:13;;;;;;;7.50;2.90;;;14.50;99.90;;;;;;5085907;28;20042;-60
2021/10/30 15:16:39;;;;;;;3.45;2.30;;;14.40;99.90;;;;;;5086858;28;20512;-60
2021/10/30 15:19:04;;;;;;;3.30;2.50;;;14.40;99.90;;;;;;5067099;28;20529;-57
2021/10/30 15:21:30;;;;;;;9.50;3.55;;;14.40;99.90;;;;;;5087497;28;20032;-56
2021/10/30 15:23:55;;;;;;;6.68;3.38;;;14.40;99.90;;;;;;5089092;28;20032;-57
2021/10/30 15:26:22;;;;;;;3.78;2.80;;;14.40;99.90;;;;;;5090775;28;20035;-59
2021/10/30 15:28:49;;;;;;;4.43;3.05;;;14.40;99.90;;;;;;5090702;28;20028;-54
2021/10/30 15:31:15;;;;;;;5.32;2.92;;;14.50;99.90;;;;;;5091051;28;20035;-57
2021/10/30 15:33:41;;;;;;;7.15;2.70;;;14.50;99.90;;;;;;5090757;28;20028;-58
2021/10/30 15:36:09;;;;;;;6.22;3.13;;;14.40;99.90;;;;;;5090691;28;20115;-55
2021/10/30 15:38:36;;;;;;;5.75;2.83;;;14.40;99.90;;;;;;5085717;28;20418;-59
2021/10/30 15:41:05;;;;;;;8.30;3.90;;;14.40;99.90;;;;;;5090185;28;20028;-59
2021/10/30 15:43:32;;;;;;;6.63;3.90;;;14.40;99.90;;;;;;5089301;28;20038;-60
2021/10/30 15:45:58;;;;;;;6.43;3.65;;;14.40;99.90;;;;;;5086608;28;20028;-60
2021/10/30 15:48:23;;;;;;;7.80;3.47;;;14.30;99.90;;;;;;5087176;28;20028;-59
2021/10/30 15:50:49;;;;;;;6.13;4.03;;;14.30;99.90;;;;;;5085539;28;20026;-59
2021/10/30 15:53:15;;;;;;;6.55;4.03;;;14.20;99.90;;;;;;5089955;28;20099;-58
2021/10/30 15:55:41;;;;;;;9.38;4.88;;;14.20;99.90;;;;;;5082574;28;20028;-57
2021/10/30 15:58:07;;;;;;;10.70;4.90;;;14.10;99.90;;;;;;5086216;28;20593;-58
2021/10/30 16:00:33;;;;;;;8.00;3.88;;;14.10;99.90;;;;;;5082999;28;20120;-60
2021/10/30 16:02:59;;;;;;;6.63;3.72;;;14.10;99.90;;;;;;5085360;28;20111;-60
2021/10/30 16:05:25;;;;;;;11.80;4.38;;;14.10;99.90;;;;;;5084568;28;20032;-61
2021/10/30 16:07:51;;;;;;;8.50;5.28;;;14.00;99.90;;;;;;5087269;28;20457;-58
2021/10/30 16:10:17;;;;;;;9.75;5.53;;;14.00;99.90;;;;;;5088465;28;20047;-62
2021/10/30 16:12:43;;;;;;;11.00;4.88;;;14.00;99.90;;;;;;5089298;28;20024;-53
2021/10/30 16:15:09;;;;;;;7.97;4.63;;;14.00;99.90;;;;;;5085585;28;20026;-54
2021/10/30 16:17:36;;;;;;;10.88;5.68;;;13.90;99.90;;;;;;5090589;28;20024;-56
2021/10/30 16:20:03;;;;;;;16.98;5.70;;;13.90;99.90;;;;;;5090370;28;20027;-60
2021/10/30 16:22:29;;;;;;;12.48;5.50;;;13.80;99.90;;;;;;5087523;28;20028;-54
2021/10/30 16:24:58;;;;;;;18.80;5.85;;;13.80;99.90;;;;;;5085069;28;20031;-57
2021/10/30 16:27:29;;;;;;;11.27;5.43;;;13.80;99.90;;;;;;5088963;28;20051;-59
2021/10/30 16:29:56;;;;;;;14.70;7.15;;;13.70;99.90;;;;;;5081473;28;20031;-60
2021/10/30 16:32:22;;;;;;;19.80;6.63;;;13.70;99.90;;;;;;5082606;28;20376;-59
2021/10/30 16:34:48;;;;;;;12.00;5.72;;;13.70;99.90;;;;;;5081304;28;20035;-56
2021/10/30 16:37:13;;;;;;;11.52;6.20;;;13.60;99.90;;;;;;5079313;28;20799;-58
2021/10/30 16:39:43;;;;;;;11.32;5.88;;;13.60;99.90;;;;;;5081925;28;20169;-59
2021/10/30 16:42:09;;;;;;;12.35;6.70;;;13.60;99.90;;;;;;5080080;28;20047;-60
2021/10/30 16:44:35;;;;;;;9.85;6.28;;;13.60;99.90;;;;;;5088634;28;20028;-57
2021/10/30 16:47:00;;;;;;;24.85;7.60;;;13.50;99.90;;;;;;5088093;28;20031;-59
2021/10/30 16:49:26;;;;;;;13.20;6.28;;;13.60;99.90;;;;;;5087427;28;20374;-56
2021/10/30 16:51:52;;;;;;;12.13;6.35;;;13.50;99.90;;;;;;5087929;28;20020;-57
2021/10/30 16:54:17;;;;;;;12.07;5.70;;;13.50;99.90;;;;;;5089303;28;20039;-58
2021/10/30 16:56:43;;;;;;;8.30;5.50;;;13.50;99.90;;;;;;5088211;28;20043;-56
2021/10/30 16:59:09;;;;;;;9.90;5.55;;;13.50;99.90;;;;;;5087907;28;20089;-56
2021/10/30 17:01:34;;;;;;;8.13;5.72;;;13.40;99.90;;;;;;5085682;28;20448;-53
2021/10/30 17:04:00;;;;;;;12.27;6.15;;;13.40;99.90;;;;;;5085709;28;20044;-63
2021/10/30 17:06:26;;;;;;;13.07;5.53;;;13.40;99.90;;;;;;5082286;28;20020;-59
2021/10/30 17:08:52;;;;;;;12.93;5.80;;;13.40;99.90;;;;;;5079961;28;20023;-60
2021/10/30 17:11:18;;;;;;;7.57;4.88;;;13.50;99.90;;;;;;5077897;28;20570;-59
2021/10/30 17:13:44;;;;;;;8.70;5.15;;;13.50;99.90;;;;;;5075902;28;20031;-57
2021/10/30 17:16:10;;;;;;;12.35;5.90;;;13.50;99.90;;;;;;5078630;28;20507;-56
2021/10/30 17:18:36;;;;;;;10.32;5.90;;;13.50;99.90;;;;;;5083535;28;20496;-61
2021/10/30 17:21:02;;;;;;;15.70;5.80;;;13.50;99.90;;;;;;5085738;28;20028;-61
2021/10/30 17:23:29;;;;;;;9.95;5.78;;;13.50;99.90;;;;;;5086173;28;20028;-59
2021/10/30 17:25:54;;;;;;;12.55;6.43;;;13.50;99.90;;;;;;5088868;28;20493;-60
2021/10/30 17:28:20;;;;;;;10.77;5.65;;;13.50;99.90;;;;;;5087734;28;20084;-57
2021/10/30 17:30:45;;;;;;;9.32;5.80;;;13.50;99.90;;;;;;5087588;28;20024;-59
2021/10/30 17:33:11;;;;;;;11.10;6.00;;;13.50;99.90;;;;;;5089022;28;20029;-58
2021/10/30 17:35:41;;;;;;;8.85;5.85;;;13.50;99.90;;;;;;5088321;28;20023;-61
2021/10/30 17:38:07;;;;;;;12.15;6.00;;;13.60;99.90;;;;;;5085044;28;20426;-62
2021/10/30 17:40:34;;;;;;;9.63;5.57;;;13.50;99.90;;;;;;5088701;28;20035;-58
2021/10/30 17:42:59;;;;;;;8.77;5.55;;;13.50;99.90;;;;;;5088311;28;20402;-57
2021/10/30 17:45:26;;;;;;;10.07;6.82;;;13.60;99.90;;;;;;5081008;28;20040;-61
2021/10/30 17:47:52;;;;;;;10.35;5.85;;;13.50;99.90;;;;;;5082722;28;20448;-58
2021/10/30 17:50:18;;;;;;;10.50;6.45;;;13.60;99.90;;;;;;5088917;28;20031;-61
2021/10/30 17:52:45;;;;;;;11.73;5.60;;;13.60;99.90;;;;;;5080538;28;20039;-62
2021/10/30 17:55:11;;;;;;;11.88;5.53;;;13.60;99.90;;;;;;5089328;28;20038;-60
2021/10/30 17:57:38;;;;;;;9.73;5.68;;;13.60;99.90;;;;;;5087575;28;20117;-60
2021/10/30 18:00:10;;;;;;;9.27;5.88;;;13.60;99.90;;;;;;5087354;28;20115;-62
2021/10/30 18:02:37;;;;;;;11.90;6.63;;;13.60;99.90;;;;;;5090040;28;20024;-63
2021/10/30 18:05:04;;;;;;;10.23;7.00;;;13.60;99.90;;;;;;5091745;28;20024;-58
2021/10/30 18:07:29;;;;;;;8.00;5.20;;;13.70;99.90;;;;;;5091228;28;20027;-58
2021/10/30 18:09:55;;;;;;;12.75;5.43;;;13.70;99.90;;;;;;5089940;28;20028;-56
2021/10/30 18:12:21;;;;;;;9.68;5.40;;;13.70;99.90;;;;;;5089373;28;20055;-58
2021/10/30 18:14:46;;;;;;;8.48;5.22;;;13.70;99.90;;;;;;5088365;28;20024;-59
2021/10/30 18:17:14;;;;;;;8.45;5.65;;;13.70;99.90;;;;;;5092270;28;20028;-56
2021/10/30 18:19:40;;;;;;;15.35;5.35;;;13.70;99.90;;;;;;5091956;28;20034;-57
2021/10/30 18:22:05;;;;;;;9.90;5.38;;;13.70;99.90;;;;;;5092403;28;20135;-56
2021/10/30 18:24:31;;;;;;;7.10;4.63;;;13.70;99.90;;;;;;5091072;28;20054;-57
2021/10/30 18:26:57;;;;;;;10.43;5.38;;;13.70;99.90;;;;;;5089163;28;20050;-58
2021/10/30 18:29:23;;;;;;;8.57;5.30;;;13.80;99.90;;;;;;5082542;28;20160;-56
2021/10/30 18:31:50;;;;;;;9.15;5.82;;;13.70;99.90;;;;;;5084386;28;20043;-57
2021/10/30 18:34:15;;;;;;;9.52;5.65;;;13.70;99.90;;;;;;5086235;28;20285;-65
2021/10/30 18:36:41;;;;;;;10.75;6.18;;;13.70;99.90;;;;;;5091365;28;20469;-56
2021/10/30 18:39:06;;;;;;;13.35;7.18;;;13.70;99.90;;;;;;5084693;28;20102;-57
2021/10/30 18:41:34;;;;;;;11.77;6.60;;;13.60;99.90;;;;;;5088885;28;20024;-56
2021/10/30 18:44:00;;;;;;;9.00;5.95;;;13.60;99.90;;;;;;5090853;28;20046;-59
2021/10/30 18:46:26;;;;;;;9.90;6.25;;;13.50;99.90;;;;;;5091012;28;20066;-58
2021/10/30 18:48:52;;;;;;;13.45;6.82;;;13.50;99.90;;;;;;5093460;28;20024;-59
2021/10/30 18:51:17;;;;;;;13.45;6.95;;;13.50;99.90;;;;;;5090920;28;20024;-55
2021/10/30 18:53:43;;;;;;;10.20;7.35;;;13.50;99.90;;;;;;5091390;28;20111;-57
2021/10/30 18:56:09;;;;;;;15.80;7.43;;;13.40;99.90;;;;;;5084181;28;20497;-59
2021/10/30 18:58:38;;;;;;;12.18;7.50;;;13.40;99.90;;;;;;5078644;28;20032;-59
2021/10/30 19:01:03;;;;;;;15.13;7.90;;;13.40;99.90;;;;;;5084363;28;20077;-59
2021/10/30 19:03:29;;;;;;;16.55;7.78;;;13.40;99.90;;;;;;5077703;28;20032;-55
2021/10/30 19:05:55;;;;;;;11.65;7.60;;;13.30;99.90;;;;;;5079976;28;20808;-61
2021/10/30 19:08:20;;;;;;;13.88;8.20;;;13.30;99.90;;;;;;5082485;28;20028;-57
2021/10/30 19:10:47;;;;;;;16.67;10.18;;;13.30;99.90;;;;;;5080506;28;20846;-54
2021/10/30 19:13:12;;;;;;;16.05;8.02;;;13.30;99.90;;;;;;5082623;28;20073;-58
2021/10/30 19:15:38;;;;;;;12.43;8.00;;;13.30;99.90;;;;;;5078514;28;20032;-55
2021/10/30 19:18:04;;;;;;;10.93;7.07;;;13.30;99.90;;;;;;5081182;28;20032;-55
2021/10/30 19:20:29;;;;;;;10.70;6.75;;;13.30;99.90;;;;;;5087655;28;20510;-59
2021/10/30 19:22:55;;;;;;;12.50;6.50;;;13.30;99.90;;;;;;5081619;28;20387;-57
2021/10/30 19:25:21;;;;;;;12.95;7.28;;;13.30;99.90;;;;;;5079720;28;20032;-59
2021/10/30 19:27:46;;;;;;;12.95;7.43;;;13.30;99.90;;;;;;5078393;28;20039;-58
2021/10/30 19:30:12;;;;;;;12.43;8.00;;;13.30;99.90;;;;;;5081418;28;20051;-61
2021/10/30 19:32:39;;;;;;;11.40;7.78;;;13.30;99.90;;;;;;5083260;28;20082;-60
2021/10/30 19:35:07;;;;;;;12.75;7.65;;;13.30;99.90;;;;;;5084314;28;20028;-55
2021/10/30 19:37:33;;;;;;;13.63;7.57;;;13.20;99.90;;;;;;5081972;28;20081;-56
2021/10/30 19:39:59;;;;;;;23.60;9.00;;;13.20;99.90;;;;;;5094300;22;20049;-62
2021/10/30 19:42:24;;;;;;;13.43;8.40;;;13.20;99.90;;;;;;5040041;28;20487;-64
2021/10/30 19:44:50;;;;;;;17.67;9.95;;;13.20;99.90;;;;;;5035771;28;20121;-60
2021/10/30 19:47:16;;;;;;;17.33;8.40;;;13.10;99.90;;;;;;5042511;28;20510;-60
2021/10/30 19:49:42;;;;;;;15.43;9.43;;;13.10;99.90;;;;;;5038978;28;20076;-61
2021/10/30 19:52:07;;;;;;;15.82;8.98;;;13.10;99.90;;;;;;5048975;28;20029;-62
2021/10/30 19:54:33;;;;;;;12.48;8.25;;;13.10;99.90;;;;;;5046650;28;20052;-61
2021/10/30 19:57:00;;;;;;;15.48;8.98;;;13.10;99.90;;;;;;5047191;28;20039;-61
2021/10/30 19:59:26;;;;;;;12.43;8.30;;;13.00;99.90;;;;;;5046097;28;20514;-61
2021/10/30 20:01:51;;;;;;;14.65;8.70;;;13.00;99.90;;;;;;5025101;28;20033;-61
2021/10/30 20:04:17;;;;;;;21.63;9.10;;;13.00;99.90;;;;;;5045798;28;20505;-62
2021/10/30 20:06:46;;;;;;;14.90;8.75;;;13.00;99.90;;;;;;5046743;28;20033;-61
2021/10/30 20:09:12;;;;;;;12.82;7.88;;;13.00;99.90;;;;;;5023906;28;20088;-62
2021/10/30 20:11:42;;;;;;;13.20;8.25;;;13.10;99.90;;;;;;5048407;28;20045;-62
2021/10/30 20:14:11;;;;;;;19.38;8.95;;;13.10;99.90;;;;;;5043916;28;20075;-62
2021/10/30 20:16:39;;;;;;;15.88;8.98;;;13.10;99.90;;;;;;5046429;28;20132;-62
2021/10/30 20:19:05;;;;;;;12.95;9.52;;;13.20;99.90;;;;;;5044325;28;20060;-62
2021/10/30 20:21:31;;;;;;;18.60;9.27;;;13.10;99.90;;;;;;5045672;28;20508;-61
2021/10/30 20:23:58;;;;;;;13.27;8.98;;;13.10;99.90;;;;;;5034057;28;20112;-61
2021/10/30 20:26:27;;;;;;;13.90;8.43;;;13.10;99.90;;;;;;5046351;28;20507;-61
2021/10/30 20:28:55;;;;;;;18.08;8.40;;;13.00;99.90;;;;;;5014966;28;20028;-61
2021/10/30 20:31:21;;;;;;;14.15;9.25;;;13.00;99.90;;;;;;5046856;28;20048;-61
2021/10/30 20:33:46;;;;;;;12.48;9.00;;;13.00;99.90;;;;;;5046359;28;20103;-61
2021/10/30 20:36:12;;;;;;;11.02;8.40;;;13.00;99.90;;;;;;5041250;28;20379;-61
2021/10/30 20:38:38;;;;;;;13.05;8.93;;;12.90;99.90;;;;;;5044313;28;20047;-61
2021/10/30 20:41:04;;;;;;;13.23;9.60;;;12.90;99.90;;;;;;5046363;28;20574;-61
2021/10/30 20:43:33;;;;;;;19.98;8.85;;;12.90;99.90;;;;;;5045603;28;20029;-61
2021/10/30 20:46:00;;;;;;;14.32;9.05;;;12.90;99.90;;;;;;5047177;28;20029;-62
2021/10/30 20:48:25;;;;;;;13.18;9.02;;;12.90;99.90;;;;;;5049094;28;20027;-61
2021/10/30 20:50:52;;;;;;;20.85;9.85;;;12.80;99.90;;;;;;5047142;28;20394;-62
2021/10/30 20:53:19;;;;;;;15.45;10.38;;;12.80;99.90;;;;;;5046578;28;20503;-60
2021/10/30 20:55:44;;;;;;;14.20;9.82;;;12.80;99.90;;;;;;5042646;28;20736;-62
2021/10/30 20:58:10;;;;;;;20.88;10.50;;;12.80;99.90;;;;;;5041616;28;20032;-62
2021/10/30 21:00:38;;;;;;;14.65;9.98;;;12.80;99.90;;;;;;5048553;28;20024;-60
2021/10/30 21:03:04;;;;;;;25.15;11.93;;;12.80;99.90;;;;;;5047579;28;20112;-61
2021/10/30 21:05:29;;;;;;;18.20;11.85;;;12.90;99.90;;;;;;5044790;28;20483;-62
2021/10/30 21:07:55;;;;;;;19.73;11.70;;;12.90;99.90;;;;;;5033350;28;20039;-62
2021/10/30 21:10:20;;;;;;;22.25;11.25;;;12.80;99.90;;;;;;5046436;28;20029;-62
2021/10/30 21:12:46;;;;;;;17.77;10.88;;;12.80;99.90;;;;;;5046171;28;20017;-62
2021/10/30 21:15:12;;;;;;;20.27;10.98;;;12.80;99.90;;;;;;5047602;28;20040;-61
2021/10/30 21:17:38;;;;;;;15.50;10.02;;;12.80;99.90;;;;;;5045502;28;20020;-61
2021/10/30 21:20:04;;;;;;;24.15;11.25;;;12.80;99.90;;;;;;5046940;28;20033;-60
2021/10/30 21:22:30;;;;;;;14.90;10.48;;;12.90;99.90;;;;;;5048992;28;20025;-62
2021/10/30 21:24:55;;;;;;;15.23;10.30;;;12.80;99.90;;;;;;5040316;28;20518;-62
2021/10/30 21:27:21;;;;;;;16.08;11.52;;;12.80;99.90;;;;;;5047517;28;20033;-61
2021/10/30 21:29:46;;;;;;;15.65;10.90;;;12.70;99.90;;;;;;5045017;28;20025;-62
2021/10/30 21:32:12;;;;;;;16.10;11.15;;;12.70;99.90;;;;;;5043869;28;20029;-62
2021/10/30 21:34:37;;;;;;;20.05;12.02;;;12.70;99.90;;;;;;5047096;28;20025;-63
2021/10/30 21:37:03;;;;;;;17.70;11.75;;;12.60;99.90;;;;;;5046598;28;20040;-62
2021/10/30 21:39:30;;;;;;;24.10;12.18;;;12.60;99.90;;;;;;5046097;28;20028;-62
2021/10/30 21:41:57;;;;;;;22.92;11.18;;;12.70;99.90;;;;;;5045212;28;20136;-63
2021/10/30 21:44:24;;;;;;;17.15;11.82;;;12.70;99.90;;;;;;5039877;28;20574;-62
2021/10/30 21:46:49;;;;;;;15.85;11.55;;;12.70;99.90;;;;;;5045274;28;20094;-63
2021/10/30 21:49:15;;;;;;;26.13;11.98;;;12.60;99.90;;;;;;5043346;28;20479;-63
2021/10/30 21:51:40;;;;;;;18.35;11.38;;;12.60;99.90;;;;;;5046958;28;20025;-63
2021/10/30 21:54:06;;;;;;;16.50;11.88;;;12.60;99.90;;;;;;5049970;28;20029;-63
2021/10/30 21:56:31;;;;;;;18.58;12.25;;;12.60;99.90;;;;;;5049484;28;20135;-62
2021/10/30 21:58:57;;;;;;;30.70;11.13;;;12.50;99.90;;;;;;5049543;28;20082;-62
2021/10/30 22:01:23;;;;;;;17.42;10.63;;;12.60;99.90;;;;;;5053335;28;20029;-61
2021/10/30 22:03:48;;;;;;;17.02;10.90;;;12.60;99.90;;;;;;5048121;28;20068;-62
2021/10/30 22:06:14;;;;;;;18.30;10.60;;;12.60;99.90;;;;;;5039340;28;20036;-62